Nearby METAR Reports

 

KBED - Bedford, Massachusetts, USA
Distance from station: ENE 12mi, 20km
Updated: Sun, 25-Feb-2024 11:51am EST
Clear
Clear
 Wind from WSW
Wind: WSW 7 mph , 11 km/h
Temperature: 30°F , -1°C
Wind Chill: 23°F , -5°C
Dew Point: -0°F , -18°C
Humidity: 26%
Barometer: 30.11 inHg , 1019.6 hPa
Clouds: Clear
Visibility: 10 miles , 16 km
2024/02/25 16:51 KBED 251651Z 25006KT 10SM CLR M01/M18 A3011 RMK AO2 UPB11E19 SLP213 P0000 T10111183
KFIT - Fitchburg, Massachusetts, USA
Distance from station: NW 15mi, 24km
Updated: Sun, 25-Feb-2024 11:52am EST
Clear
Clear
 Wind from calm
Wind: Calm
Temperature: 30°F , -1°C
Dew Point: -0°F , -18°C
Humidity: 26%
Barometer: 30.10 inHg , 1019.3 hPa
Clouds: Clear
Visibility: 10 miles , 16 km
2024/02/25 16:52 KFIT 251652Z AUTO 00000KT 10SM CLR M01/M18 A3010 RMK AO2 SLP198 T10111178
 
KORH - Worcester, Massachusetts, USA
Distance from station: WSW 20mi, 32km
Updated: Sun, 25-Feb-2024 11:54am EST
Clear
Clear
 Wind from varies
Wind: varies 7 mph , 11 km/h
Temperature: 30°F , -1°C
Wind Chill: 23°F , -5°C
Dew Point: 3°F , -16°C
Humidity: 31%
Barometer: 30.05 inHg , 1017.6 hPa
Clouds: Clear
Visibility: 10 miles , 16 km
2024/02/25 16:54 KORH 251654Z VRB06KT 10SM CLR M01/M16 A3005 RMK AO2 SLP191 T10111161
KOWD - Norwood, Massachusetts, USA
Distance from station: SE 24mi, 39km
Updated: Sun, 25-Feb-2024 11:53am EST
Clear
Clear
 Wind from varies
Wind: varies 3 mph , 6 km/h
Temperature: 32°F , 0°C
Dew Point: -0°F , -18°C
Humidity: 25%
Barometer: 30.12 inHg , 1020 hPa
Clouds: Clear
Visibility: 10 miles , 16 km
2024/02/25 16:53 KOWD 251653Z VRB03KT 10SM CLR 00/M18 A3012 RMK AO2 SLP201 T00001178
 
KMQE - East Milton, Massachusetts, USA
Distance from station: ESE 25mi, 40km
Updated: Thu, 01-Jul-2021 9:51am EDT
NOT Current

 Wind from WNW
Wind: WNW 9 mph , 15 km/h
Temperature: 75°F , 24°C
Dew Point: 70°F , 21°C
Humidity: 83%
Barometer: 29.86 inHg , 1011.2 hPa
2021/07/01 13:51 KMQE 011351Z AUTO 30008KT 24/21 A2986 RMK AO1 SLP116 T02440206
KASH - Nashua/Boire Fld, New Hampshire, USA
Distance from station: N 26mi, 42km
Updated: Sun, 25-Feb-2024 11:56am EST
Clear
Clear
 Wind from WNW
Wind: WNW 6 mph , 9 km/h
Temperature: 30°F , -1°C
Wind Chill: 24°F , -4°C
Dew Point: 1°F , -17°C
Humidity: 29%
Barometer: 30.11 inHg , 1019.6 hPa
Clouds: Clear
Visibility: 10 miles , 16 km
2024/02/25 16:56 KASH 251656Z 30005KT 10SM CLR M01/M17 A3011 RMK AO2 SLP202 T10061167
 
KBOS - Boston, Massachusetts, USA
Distance from station: E 26mi, 42km
Updated: Sun, 25-Feb-2024 11:54am EST
Few Clouds
Few Clouds
 Wind from varies
Wind: varies 3 mph , 6 km/h
Temperature: 30°F , -1°C
Dew Point: 9°F , -13°C
Humidity: 40%
Barometer: 30.13 inHg , 1020.3 hPa
Clouds: Few Clouds
Visibility: 10 miles , 16 km
Cloud details: Few Clouds 4500 ft
2024/02/25 16:54 KBOS 251654Z VRB03KT 10SM FEW045 M01/M13 A3013 RMK AO2 SLP201 T10111128
KLWM - Lawrence, Massachusetts, USA
Distance from station: NE 29mi, 47km
Updated: Sun, 25-Feb-2024 11:54am EST
Clear
Clear
 Wind from WSW
Wind: WSW 7 mph , 11 km/h
Temperature: 28°F , -2°C
Wind Chill: 21°F , -6°C
Dew Point: 1°F , -17°C
Humidity: 31%
Barometer: 30.12 inHg , 1020 hPa
Clouds: Clear
Visibility: 10 miles , 16 km
2024/02/25 16:54 KLWM 251654Z 24006KT 10SM CLR M02/M17 A3012 RMK AO2 SLP202 T10171172
 
KBVY - Beverly, Massachusetts, USA
Distance from station: ENE 33mi, 54km
Updated: Sun, 25-Feb-2024 11:53am EST
Clear
Clear
 Wind from calm
Wind: Calm
Temperature: 28°F , -2°C
Dew Point: 1°F , -17°C
Humidity: 31%
Barometer: 30.11 inHg , 1019.6 hPa
Clouds: Clear
Visibility: 10 miles , 16 km
2024/02/25 16:53 KBVY 251653Z 00000KT 10SM CLR M02/M17 A3011 RMK AO2 SLP195 T10221167
KSFZ - Pawtucket, Rhode Island, USA
Distance from station: S 34mi, 54km
Updated: Sun, 25-Feb-2024 11:56am EST
Clear
Clear
 Wind from varies
Wind: varies 7 mph , 11 km/h
Temperature: 30°F , -1°C
Wind Chill: 23°F , -5°C
Dew Point: 1°F , -17°C
Humidity: 29%
Barometer: 30.10 inHg , 1019.3 hPa
Clouds: Clear
Visibility: 10 miles , 16 km
2024/02/25 16:56 KSFZ 251656Z AUTO VRB06KT 10SM CLR M01/M17 A3010 RMK AO2 SLP200 T10111167 FZRANO $
 
KAFN - Jaffrey, New Hampshire, USA
Distance from station: NW 36mi, 59km
Updated: Sun, 25-Feb-2024 11:52am EST
Clear
Clear
 
Temperature: 28°F , -2°C
Dew Point: 7°F , -14°C
Humidity: 40%
Barometer: 30.04 inHg , 1017.3 hPa
Clouds: Clear
Visibility: 10 miles , 16 km
2024/02/25 16:52 KAFN 251652Z AUTO 10SM CLR M02/M14 A3004 RMK AO2 SLP194 T10171144
KMHT - Manchester, New Hampshire, USA
Distance from station: N 37mi, 59km
Updated: Sun, 25-Feb-2024 11:53am EST
Clear
Clear
 Wind from varies
Wind: varies 3 mph , 6 km/h
Temperature: 30°F , -1°C
Dew Point: 1°F , -17°C
Humidity: 29%
Barometer: 30.08 inHg , 1018.6 hPa
Clouds: Clear
Visibility: 10 miles , 16 km
2024/02/25 16:53 KMHT 251653Z VRB03KT 10SM CLR M01/M17 A3008 RMK AO2 SLP209 T10061172 $
 
KORE - Orange, Massachusetts, USA
Distance from station: WNW 40mi, 65km
Updated: Sun, 25-Feb-2024 11:52am EST
Clear
Clear
 Wind from SE
Wind: SE 5 mph , 7 km/h
Temperature: 28°F , -2°C
Wind Chill: 22°F , -6°C
Dew Point: 7°F , -14°C
Humidity: 40%
Barometer: 30.10 inHg , 1019.3 hPa
Clouds: Clear
Visibility: 10 miles , 16 km
2024/02/25 16:52 KORE 251652Z AUTO 14004KT 10SM CLR M02/M14 A3010 RMK AO2 SLP201 T10171144
KTAN - Taunton, Massachusetts, USA
Distance from station: SE 45mi, 72km
Updated: Sun, 25-Feb-2024 11:52am EST
Clear
Clear
 Wind from varies
Wind: varies 5 mph , 7 km/h
Temperature: 32°F , 0°C
Wind Chill: 27°F , -3°C
Dew Point: -0°F , -18°C
Humidity: 25%
Barometer: 30.13 inHg , 1020.3 hPa
Clouds: Clear
Visibility: 10 miles , 16 km
2024/02/25 16:52 KTAN 251652Z AUTO VRB04KT 10SM CLR 00/M18 A3013 RMK AO2 SLP202 T00001183
 
KPVD - Providence/Green, Rhode Island, USA
Distance from station: S 48mi, 77km
Updated: Sun, 25-Feb-2024 11:51am EST
Clear
Clear
 Wind from varies
Wind: varies 3 mph , 6 km/h
Temperature: 30°F , -1°C
Dew Point: 1°F , -17°C
Humidity: 29%
Barometer: 30.14 inHg , 1020.7 hPa
Clouds: Clear
Visibility: 10 miles , 16 km
2024/02/25 16:51 KPVD 251651Z AUTO VRB03KT 10SM CLR M01/M17 A3014 RMK AO2 SLP206 T10111172 $
KGHG - Marshfield, Massachusetts, USA
Distance from station: ESE 49mi, 79km
Updated: Sun, 25-Feb-2024 12:15pm EST
Clear
Clear
 Wind from ENE
Wind: ENE 6 mph , 9 km/h
Temperature: 28°F , -2°C
Wind Chill: 21°F , -6°C
Dew Point: 9°F , -13°C
Humidity: 43%
Barometer: 30.13 inHg , 1020.3 hPa
Clouds: Clear
Visibility: 10 miles , 16 km
2024/02/25 17:15 KGHG 251715Z AUTO 07005KT 10SM CLR M02/M13 A3013 RMK AO2
 
KEEN - Keene/Dillant, New Hampshire, USA
Distance from station: NW 50mi, 81km
Updated: Sun, 25-Feb-2024 11:56am EST
Clear
Clear
 Wind from calm
Wind: Calm
Temperature: 32°F , 0°C
Dew Point: 9°F , -13°C
Humidity: 37%
Barometer: 30.08 inHg , 1018.6 hPa
Clouds: Clear
Visibility: 10 miles , 16 km
2024/02/25 16:56 KEEN 251656Z AUTO 00000KT 10SM CLR 00/M13 A3008 RMK AO2 SLP200 T00001128 FZRANO $